Time;durP1;ratioP1;P1;durP2;ratioP2;P2;SDS_P1;SDS_P2;PMS_P1;PMS_P2;Temp;Humidity;BMP_temperature;BMP_pressure;BME280_temperature;BME280_humidity;BME280_pressure;Samples;Min_cycle;Max_cycle;Signal;HPM_P1;HPM_P2
2022/07/07 05:28:41;;;;;;;;;4.00;3.50;;;;;19.96;57.98;102263.69;2948524;22;45892;31
2022/07/07 05:29:51;;;;;;;;;4.50;3.00;;;;;19.92;57.40;102257.66;2396159;28;45976;-85
2022/07/07 05:31:02;;;;;;;;;3.00;3.00;;;;;19.89;57.65;102266.69;2401921;28;45507;-85
2022/07/07 05:32:13;;;;;;;;;4.00;4.00;;;;;19.89;57.63;102266.69;2408947;28;44773;-85
2022/07/07 05:33:23;;;;;;;;;5.25;3.50;;;;;19.90;57.46;102264.88;2403736;28;45457;-85
2022/07/07 05:34:33;;;;;;;;;5.75;2.75;;;;;19.90;57.63;102267.56;2401540;28;45423;-86
2022/07/07 05:35:44;;;;;;;;;3.50;3.00;;;;;19.93;57.58;102259.38;2403594;28;45469;-86
2022/07/07 05:36:54;;;;;;;;;4.25;4.25;;;;;19.97;57.46;102260.13;2402028;28;45263;-87
2022/07/07 05:38:05;;;;;;;;;5.00;4.25;;;;;19.99;57.47;102250.22;2404957;28;46568;-86
2022/07/07 05:39:16;;;;;;;;;3.00;3.00;;;;;20.02;57.55;102258.97;2404406;28;45165;-87
2022/07/07 05:40:27;;;;;;;;;3.25;3.25;;;;;20.05;57.79;102255.25;2401562;28;46158;-86
2022/07/07 05:41:37;;;;;;;;;7.50;5.50;;;;;20.08;57.51;102264.91;2402718;28;45244;-86
2022/07/07 05:42:47;;;;;;;;;4.25;4.25;;;;;20.10;57.49;102253.22;2402646;28;45351;-87
2022/07/07 05:43:58;;;;;;;;;5.00;4.00;;;;;20.15;57.34;102258.34;2406288;28;44666;-87
2022/07/07 05:45:10;;;;;;;;;5.75;4.75;;;;;20.18;57.50;102260.88;2401920;28;46605;-87
2022/07/07 05:46:20;;;;;;;;;5.00;3.00;;;;;20.22;57.40;102257.09;2404217;28;45698;-85
2022/07/07 05:47:31;;;;;;;;;1.00;1.00;;;;;20.24;57.57;102257.91;2401621;28;45501;-86
2022/07/07 05:48:42;;;;;;;;;4.00;4.00;;;;;20.24;57.36;102257.91;2405669;28;45461;-86
2022/07/07 05:49:52;;;;;;;;;3.25;3.25;;;;;20.25;57.43;102269.44;2401202;28;45449;-86
2022/07/07 05:51:02;;;;;;;;;2.25;2.25;;;;;20.27;57.41;102259.56;2403456;28;45355;-86
2022/07/07 05:52:13;;;;;;;;;4.50;4.50;;;;;20.28;57.63;102265.75;2411282;28;46955;-87
2022/07/07 05:53:23;;;;;;;;;4.75;3.25;;;;;20.29;57.53;102263.03;2401467;28;44709;-86
2022/07/07 05:54:34;;;;;;;;;5.25;4.25;;;;;20.32;57.56;102267.34;2401645;28;46223;-87
2022/07/07 05:55:44;;;;;;;;;5.50;3.25;;;;;20.33;57.21;102261.03;2405123;28;45504;-88
2022/07/07 05:56:54;;;;;;;;;4.50;3.00;;;;;20.34;57.11;102266.31;2403754;28;45450;-86
2022/07/07 05:58:05;;;;;;;;;2.50;2.00;;;;;20.38;57.16;102264.34;2402854;28;45433;-87
2022/07/07 05:59:15;;;;;;;;;4.25;3.25;;;;;20.41;57.28;102261.53;2402653;28;45319;-89
2022/07/07 06:00:27;;;;;;;;;3.00;3.00;;;;;20.42;57.20;102270.41;2403415;28;45257;-87
2022/07/07 06:01:37;;;;;;;;;3.00;3.00;;;;;20.45;57.08;102272.91;2396102;28;47641;-88
2022/07/07 06:02:47;;;;;;;;;4.00;3.75;;;;;20.48;56.84;102277.22;2399791;28;45479;-88
2022/07/07 06:03:58;;;;;;;;;5.00;2.75;;;;;20.49;57.25;102273.63;2401735;28;46176;-89
2022/07/07 06:05:08;;;;;;;;;2.75;2.75;;;;;20.52;56.83;102273.47;2402736;28;44821;-88
2022/07/07 06:06:19;;;;;;;;;5.50;5.50;;;;;20.54;57.05;102277.78;2404240;28;45224;-87
2022/07/07 06:07:29;;;;;;;;;3.50;2.25;;;;;20.55;57.14;102276.84;2405265;28;45261;-88
2022/07/07 06:08:39;;;;;;;;;4.25;4.00;;;;;20.55;56.71;102279.50;2408782;28;47912;-89
2022/07/07 06:09:50;;;;;;;;;2.25;2.25;;;;;20.56;57.02;102283.91;2411928;28;45455;-89
2022/07/07 06:11:01;;;;;;;;;3.75;3.75;;;;;20.58;57.12;102281.16;2412308;28;45476;-88
2022/07/07 06:12:12;;;;;;;;;4.50;4.50;;;;;20.59;57.04;102288.25;2416505;28;45391;-88
2022/07/07 06:13:22;;;;;;;;;2.25;2.25;;;;;20.61;56.62;102285.47;2400392;28;47363;-89
2022/07/07 06:14:34;;;;;;;;;4.25;4.25;;;;;20.62;56.19;102285.38;2401997;28;45253;-87
2022/07/07 06:15:44;;;;;;;;;2.25;2.25;;;;;20.62;56.77;102289.91;2394361;28;47272;-88
2022/07/07 06:16:54;;;;;;;;;5.00;3.25;;;;;20.63;57.39;102295.16;2401727;28;45648;-94
2022/07/07 06:18:05;;;;;;;;;3.00;3.00;;;;;20.62;56.72;102284.56;2405952;28;47200;-87
2022/07/07 06:19:15;;;;;;;;;4.50;3.00;;;;;20.61;56.76;102291.69;2411858;28;45260;-87
2022/07/07 06:20:26;;;;;;;;;4.00;4.00;;;;;20.62;56.93;102290.72;2404461;28;46327;-86
2022/07/07 06:21:37;;;;;;;;;3.00;3.00;;;;;20.64;56.74;102288.00;2404297;28;45196;-87
2022/07/07 06:22:48;;;;;;;;;6.00;3.75;;;;;20.62;56.61;102298.75;2404899;28;47994;-86
2022/07/07 06:23:58;;;;;;;;;4.75;3.75;;;;;20.64;56.77;102299.53;2400876;28;45242;-88
2022/07/07 06:25:09;;;;;;;;;3.00;3.00;;;;;20.63;56.69;102303.16;2407577;28;47038;-88
2022/07/07 06:26:19;;;;;;;;;3.25;3.25;;;;;20.64;56.99;102302.19;2403847;28;45474;-87
2022/07/07 06:27:29;;;;;;;;;5.00;2.50;;;;;20.63;56.87;102305.81;2404389;28;46609;-87
2022/07/07 06:28:40;;;;;;;;;3.25;2.00;;;;;20.65;56.84;102306.59;2408618;28;45439;-87
2022/07/07 06:29:50;;;;;;;;;5.25;3.25;;;;;20.66;56.97;102305.69;2400511;28;47866;-87
2022/07/07 06:31:00;;;;;;;;;3.75;2.00;;;;;20.68;56.41;102305.59;2413432;28;45382;-87
2022/07/07 06:32:11;;;;;;;;;3.75;3.50;;;;;20.70;56.90;102311.72;2413699;28;45417;-88
2022/07/07 06:33:21;;;;;;;;;4.75;3.50;;;;;20.68;56.79;102306.47;2422552;28;45291;-86
2022/07/07 06:34:32;;;;;;;;;3.25;2.00;;;;;20.71;56.74;102309.91;2420049;28;45413;-85
2022/07/07 06:35:42;;;;;;;;;4.00;4.00;;;;;20.71;56.45;102308.09;2411314;28;45320;-86
2022/07/07 06:36:52;;;;;;;;;4.25;4.25;;;;;20.73;57.00;102324.06;2403310;28;46869;-86
2022/07/07 06:38:03;;;;;;;;;3.25;3.25;;;;;20.72;56.85;102312.50;2410237;28;45372;-86
2022/07/07 06:39:13;;;;;;;;;2.00;2.00;;;;;20.73;56.62;102318.72;2403034;28;47932;-86
2022/07/07 06:40:24;;;;;;;;;2.25;2.25;;;;;20.74;57.16;102312.44;2409671;28;45431;-86
2022/07/07 06:41:38;;;;;;;;;3.00;3.00;;;;;20.74;56.55;102313.28;2404415;28;45518;-86
2022/07/07 06:42:49;;;;;;;;;2.50;2.50;;;;;20.74;56.42;102317.78;2404186;28;45433;-85
2022/07/07 06:43:59;;;;;;;;;3.50;3.00;;;;;20.73;56.63;102318.72;2402529;28;45333;-86
2022/07/07 06:45:10;;;;;;;;;4.00;3.00;;;;;20.73;56.54;102316.91;2404057;28;45225;-86
2022/07/07 06:46:20;;;;;;;;;3.00;3.00;;;;;20.74;56.77;102315.94;2402764;28;47196;-83
2022/07/07 06:47:31;;;;;;;;;6.50;2.00;;;;;20.76;56.60;102315.88;2405963;28;45429;-83
2022/07/07 06:48:41;;;;;;;;;7.25;2.25;;;;;20.77;56.71;102320.25;2419990;28;45677;-82
2022/07/07 06:49:51;;;;;;;;;2.50;2.50;;;;;20.77;56.58;102317.59;2413778;28;45268;-82
2022/07/07 06:51:02;;;;;;;;;5.00;2.75;;;;;20.78;56.29;102316.66;2404302;28;45388;-84
2022/07/07 06:52:13;;;;;;;;;4.75;3.25;;;;;20.78;56.73;102325.56;2404369;28;45553;-83
2022/07/07 06:53:23;;;;;;;;;4.00;3.00;;;;;20.82;56.59;102326.25;2413968;28;47125;-84
2022/07/07 06:54:34;;;;;;;;;3.25;3.25;;;;;20.86;56.58;102329.63;2404457;28;45424;-84
2022/07/07 06:55:44;;;;;;;;;5.50;4.00;;;;;20.88;56.67;102335.75;2406407;28;45700;-84
2022/07/07 06:56:54;;;;;;;;;3.00;3.00;;;;;20.90;56.54;102331.19;2404435;28;45298;-84
2022/07/07 06:58:05;;;;;;;;;5.00;3.50;;;;;20.90;56.08;102323.19;2410174;28;45505;-85
2022/07/07 06:59:16;;;;;;;;;2.25;1.00;;;;;20.90;56.31;102324.03;2422103;28;45263;-84
2022/07/07 07:00:26;;;;;;;;;2.00;2.00;;;;;20.91;56.41;102324.91;2412824;28;46742;-83
2022/07/07 07:01:37;;;;;;;;;5.50;3.00;;;;;20.95;56.83;102320.25;2408549;28;45154;-84
2022/07/07 07:02:48;;;;;;;;;2.75;2.75;;;;;20.95;56.39;102328.28;2406151;28;47045;-83
2022/07/07 07:03:59;;;;;;;;;3.25;2.00;;;;;20.97;56.68;102323.72;2409518;28;44746;-83
2022/07/07 07:05:09;;;;;;;;;4.00;3.50;;;;;20.99;56.79;102327.19;2405965;28;47555;-84
2022/07/07 07:06:20;;;;;;;;;3.25;3.00;;;;;21.00;56.41;102321.78;2415567;28;45208;-85
2022/07/07 07:07:31;;;;;;;;;3.00;3.00;;;;;21.01;56.48;102322.66;2406168;28;46232;-85
2022/07/07 07:08:42;;;;;;;;;3.00;3.00;;;;;21.03;56.16;102326.13;2410957;28;44802;-84
2022/07/07 07:09:52;;;;;;;;;3.00;3.00;;;;;21.02;56.29;102313.69;2403882;28;45405;-84
2022/07/07 07:11:03;;;;;;;;;2.25;2.25;;;;;21.02;56.32;102316.34;2403817;28;45382;-84
2022/07/07 07:12:13;;;;;;;;;2.00;2.00;;;;;21.05;56.03;102323.34;2408734;28;46565;-84
2022/07/07 07:13:24;;;;;;;;;2.00;2.00;;;;;21.06;56.44;102323.28;2413260;28;44680;-84
2022/07/07 07:14:34;;;;;;;;;3.50;3.50;;;;;21.09;56.44;102330.25;2402552;28;45528;-84
2022/07/07 07:15:45;;;;;;;;;7.00;3.00;;;;;21.11;56.11;102325.72;2405076;28;44774;-85
2022/07/07 07:16:56;;;;;;;;;3.00;2.75;;;;;21.15;56.57;102332.63;2402417;28;46149;-85
2022/07/07 07:18:06;;;;;;;;;3.00;3.00;;;;;21.18;56.08;102334.25;2403426;28;45230;-84
2022/07/07 07:19:17;;;;;;;;;3.00;2.00;;;;;21.20;56.06;102337.72;2410498;28;46432;-84
2022/07/07 07:20:29;;;;;;;;;3.50;3.00;;;;;21.22;55.96;102341.16;2406005;28;45245;-84
2022/07/07 07:21:39;;;;;;;;;4.75;4.00;;;;;21.24;56.21;102341.94;2411911;28;47402;-84
2022/07/07 07:22:50;;;;;;;;;3.00;3.00;;;;;21.26;56.06;102340.03;2410571;28;45228;-83
2022/07/07 07:24:00;;;;;;;;;7.25;4.00;;;;;21.25;55.94;102341.00;2410149;28;46999;-85
2022/07/07 07:25:11;;;;;;;;;3.25;3.25;;;;;21.27;55.90;102344.47;2416748;28;45472;-84
2022/07/07 07:26:22;;;;;;;;;5.00;3.00;;;;;21.29;56.02;102344.38;2413372;28;46081;-85
2022/07/07 07:27:35;;;;;;;;;3.75;3.00;;;;;21.28;55.94;102346.19;2407294;28;45252;-84
2022/07/07 07:28:45;;;;;;;;;3.00;3.00;;;;;21.28;56.02;102348.88;2411650;28;45986;-85
2022/07/07 07:29:56;;;;;;;;;3.00;3.00;;;;;21.29;55.83;102347.91;2408157;28;46465;-85
2022/07/07 07:31:06;;;;;;;;;2.75;2.25;;;;;21.31;55.91;102358.53;2403772;28;48033;-84
2022/07/07 07:32:17;;;;;;;;;4.00;3.25;;;;;21.33;55.52;102357.53;2405148;28;44681;-84
2022/07/07 07:33:28;;;;;;;;;3.25;3.00;;;;;21.35;55.72;102358.28;2407514;28;46998;-84
2022/07/07 07:34:39;;;;;;;;;2.50;2.50;;;;;21.38;55.49;102364.41;2419648;28;44733;-85
2022/07/07 07:35:49;;;;;;;;;4.00;3.50;;;;;21.36;55.26;102369.84;2410665;28;46800;-83
2022/07/07 07:37:00;;;;;;;;;3.00;2.25;;;;;21.37;55.53;102368.91;2403215;28;45442;-83
2022/07/07 07:38:10;;;;;;;;;2.00;2.00;;;;;21.38;55.50;102367.97;2409114;28;46200;-84
2022/07/07 07:39:21;;;;;;;;;3.25;3.00;;;;;21.43;55.64;102378.41;2408349;28;45435;-84
2022/07/07 07:40:31;;;;;;;;;3.00;3.00;;;;;21.43;55.37;102365.03;2405766;28;46372;-84
2022/07/07 07:41:43;;;;;;;;;2.50;2.00;;;;;21.48;55.66;102373.69;2403938;28;44673;-84
2022/07/07 07:42:54;;;;;;;;;3.50;3.00;;;;;21.50;55.41;102369.13;2403032;28;47383;-84
2022/07/07 07:44:04;;;;;;;;;1.50;1.00;;;;;21.53;55.55;102371.59;2412715;28;44718;-84
2022/07/07 07:45:15;;;;;;;;;3.75;3.75;;;;;21.56;55.65;102367.91;2416465;28;45427;-84
2022/07/07 07:46:25;;;;;;;;;3.00;3.00;;;;;21.59;55.35;102373.97;2413362;28;45361;-83
2022/07/07 07:47:42;;;;;;;;;5.25;2.50;;;;;21.63;55.28;102371.13;2406357;28;45596;-83
2022/07/07 07:48:52;;;;;;;;;2.00;2.00;;;;;21.65;55.14;102378.13;2404284;28;45300;-84
2022/07/07 07:50:03;;;;;;;;;4.50;3.00;;;;;21.69;55.11;102379.66;2403562;28;45279;-83
2022/07/07 07:51:13;;;;;;;;;3.00;3.00;;;;;21.73;54.92;102380.34;2404736;28;45451;-83
2022/07/07 07:52:23;;;;;;;;;3.25;2.25;;;;;21.76;55.02;102374.84;2412664;28;45411;-84
2022/07/07 07:53:34;;;;;;;;;3.25;3.00;;;;;21.79;54.69;102379.16;2413268;28;45407;-82
2022/07/07 07:54:44;;;;;;;;;4.25;3.00;;;;;21.78;55.21;102380.97;2421780;28;46310;-82
2022/07/07 07:55:55;;;;;;;;;3.00;3.00;;;;;21.80;54.29;102384.41;2419648;28;45248;-83
2022/07/07 07:57:06;;;;;;;;;3.75;3.00;;;;;21.84;55.02;102385.13;2413246;28;45447;-83
2022/07/07 07:58:17;;;;;;;;;6.25;4.00;;;;;21.85;54.63;102384.19;2413040;28;45280;-83
2022/07/07 07:59:27;;;;;;;;;4.25;3.50;;;;;21.86;54.54;102391.28;2404883;28;46415;-83
2022/07/07 08:00:38;;;;;;;;;4.00;3.25;;;;;21.89;55.04;102387.56;2407450;28;45216;-83
2022/07/07 08:01:48;;;;;;;;;5.75;3.00;;;;;21.91;54.85;102396.38;2403162;28;45465;-83
2022/07/07 08:02:58;;;;;;;;;3.25;3.25;;;;;21.91;54.35;102386.53;2403715;28;45502;-82
2022/07/07 08:04:08;;;;;;;;;5.00;4.00;;;;;21.95;54.54;102389.06;2406635;28;46452;-83
2022/07/07 08:05:19;;;;;;;;;5.00;3.00;;;;;21.97;54.64;102396.06;2403503;28;45169;-83
2022/07/07 08:06:32;;;;;;;;;3.00;3.00;;;;;21.99;54.37;102385.25;2405982;28;46039;-83
2022/07/07 08:07:43;;;;;;;;;3.75;2.75;;;;;21.98;54.20;102381.72;2412550;28;45347;-83
2022/07/07 08:08:54;;;;;;;;;3.50;2.00;;;;;22.00;54.50;102374.44;2412441;28;46412;-83
2022/07/07 08:10:05;;;;;;;;;3.00;3.00;;;;;22.03;54.41;102371.59;2413190;28;45248;-83
2022/07/07 08:11:15;;;;;;;;;7.25;5.00;;;;;22.03;54.14;102379.63;2413053;28;45548;-82
2022/07/07 08:12:26;;;;;;;;;3.00;3.00;;;;;22.05;54.03;102382.22;2405953;28;45314;-83
2022/07/07 08:13:36;;;;;;;;;3.00;3.00;;;;;22.05;54.48;102376.03;2410438;28;45240;-83
2022/07/07 08:14:47;;;;;;;;;3.00;2.00;;;;;22.06;53.62;102373.25;2405625;28;45296;-83
2022/07/07 08:15:57;;;;;;;;;6.00;3.00;;;;;22.05;53.79;102373.34;2405427;28;47153;-83
2022/07/07 08:17:07;;;;;;;;;3.00;3.00;;;;;22.04;53.87;102369.78;2416409;28;44635;-83
2022/07/07 08:18:18;;;;;;;;;5.50;3.25;;;;;22.04;54.34;102367.13;2412863;28;45354;-83
2022/07/07 08:19:28;;;;;;;;;2.00;2.00;;;;;22.06;54.25;102367.03;2413116;28;45220;-83
2022/07/07 08:20:38;;;;;;;;;2.50;2.50;;;;;22.08;54.17;102367.78;2421748;28;48217;-83
2022/07/07 08:21:50;;;;;;;;;3.00;3.00;;;;;22.10;54.25;102368.59;2419539;28;45255;-83
2022/07/07 08:23:01;;;;;;;;;2.50;2.50;;;;;22.14;54.43;102367.47;2408094;28;45542;-83
2022/07/07 08:24:12;;;;;;;;;3.75;2.00;;;;;22.18;54.64;102368.13;2404430;28;45402;-83
2022/07/07 08:25:23;;;;;;;;;1.50;0.75;;;;;22.22;53.71;102373.25;2414532;28;47595;-83
2022/07/07 08:26:33;;;;;;;;;1.50;1.50;;;;;22.26;54.08;102382.84;2411517;28;45291;-83
2022/07/07 08:27:43;;;;;;;;;6.50;4.00;;;;;22.31;53.53;102376.34;2412443;28;45397;-83
2022/07/07 08:28:54;;;;;;;;;1.25;1.25;;;;;22.32;53.69;102370.88;2412473;28;45386;-83
2022/07/07 08:30:05;;;;;;;;;2.50;2.50;;;;;22.36;53.51;102376.94;2405334;28;45586;-83
2022/07/07 08:31:15;;;;;;;;;4.00;3.00;;;;;22.38;53.36;102367.00;2403397;28;45399;-83
2022/07/07 08:32:25;;;;;;;;;3.00;3.00;;;;;22.42;53.44;102373.06;2401160;28;46494;-84
2022/07/07 08:33:37;;;;;;;;;2.50;2.50;;;;;22.45;53.40;102371.03;2395866;28;45252;-83
2022/07/07 08:34:47;;;;;;;;;2.25;2.25;;;;;22.49;53.03;102367.22;2412012;28;47523;-83
2022/07/07 08:35:58;;;;;;;;;3.00;3.00;;;;;22.53;53.35;102367.91;2412460;28;45210;-83
2022/07/07 08:37:09;;;;;;;;;3.75;2.75;;;;;22.57;52.86;102372.13;2411618;28;46193;-83
2022/07/07 08:38:20;;;;;;;;;1.75;1.75;;;;;22.61;52.82;102372.84;2412188;28;45248;-83
2022/07/07 08:39:30;;;;;;;;;3.00;2.00;;;;;22.64;53.20;102371.78;2412120;28;45930;-82
2022/07/07 08:40:40;;;;;;;;;2.50;2.50;;;;;22.67;52.68;102367.09;2404865;28;45346;-83
2022/07/07 08:41:51;;;;;;;;;2.50;2.00;;;;;22.68;52.82;102362.63;2403383;28;46381;-83
2022/07/07 08:43:01;;;;;;;;;2.00;2.00;;;;;22.72;52.84;102360.66;2394476;28;45157;-82
2022/07/07 08:44:12;;;;;;;;;3.50;3.00;;;;;22.76;52.63;102367.56;2405713;28;45285;-82
2022/07/07 08:45:22;;;;;;;;;3.00;2.00;;;;;22.80;52.56;102366.41;2402618;28;45417;-83
2022/07/07 08:46:33;;;;;;;;;2.75;2.75;;;;;22.85;52.52;102361.63;2402004;28;46283;-83
2022/07/07 08:47:44;;;;;;;;;3.25;2.00;;;;;22.88;52.42;102360.59;2403450;28;45364;-82
2022/07/07 08:48:54;;;;;;;;;3.00;3.00;;;;;22.93;52.69;102369.22;2403577;28;45407;-83
2022/07/07 08:50:05;;;;;;;;;4.00;3.00;;;;;22.95;52.55;102364.63;2404237;28;45344;-83
2022/07/07 08:51:16;;;;;;;;;1.75;1.00;;;;;22.98;52.30;102363.56;2406724;28;45556;-82
2022/07/07 08:52:28;;;;;;;;;2.00;2.00;;;;;23.01;51.85;102358.91;2412922;28;45185;-83
2022/07/07 08:53:38;;;;;;;;;3.25;1.75;;;;;23.03;51.88;102350.75;2410012;28;47460;-84
2022/07/07 08:54:49;;;;;;;;;3.75;2.50;;;;;23.04;51.87;102356.00;2401478;28;45457;-81
2022/07/07 08:56:04;;;;;;;;;2.00;1.25;;;;;23.04;52.00;102352.47;2409545;28;46472;-82
2022/07/07 08:57:15;;;;;;;;;3.00;1.25;;;;;23.03;52.23;102351.63;2402719;28;45514;-82
2022/07/07 08:58:26;;;;;;;;;3.25;1.25;;;;;23.07;52.17;102365.69;2403349;28;46485;-82
2022/07/07 08:59:36;;;;;;;;;2.00;2.00;;;;;23.10;52.01;102362.84;2404009;28;45499;-82
2022/07/07 09:00:47;;;;;;;;;4.00;3.25;;;;;23.13;51.61;102359.97;2412770;28;45274;-82
2022/07/07 09:02:00;;;;;;;;;1.25;1.25;;;;;23.18;51.77;102359.69;2412840;28;45185;-82
2022/07/07 09:03:10;;;;;;;;;3.00;1.00;;;;;23.22;52.20;102363.03;2410119;28;45411;-82
2022/07/07 09:04:21;;;;;;;;;2.00;1.00;;;;;23.25;51.49;102360.16;2404122;28;45411;-82
2022/07/07 09:05:37;;;;;;;;;2.00;2.00;;;;;23.28;51.83;102359.97;2412178;28;45422;-82
2022/07/07 09:06:56;;;;;;;;;4.00;2.00;;;;;23.32;51.53;102358.81;2407172;28;45225;-82
2022/07/07 09:08:21;;;;;;;;;4.00;2.00;;;;;23.36;51.56;102363.03;2405574;28;45668;-82
2022/07/07 09:09:41;;;;;;;;;3.00;2.50;;;;;23.38;51.43;102355.75;2398245;28;44828;-82
2022/07/07 09:10:51;;;;;;;;;3.50;2.00;;;;;23.40;51.21;102361.03;2405163;28;46355;-82
2022/07/07 09:12:07;;;;;;;;;2.00;2.00;;;;;23.41;51.08;102361.91;2412730;28;45286;-82
2022/07/07 09:13:29;;;;;;;;;1.50;1.50;;;;;23.42;50.79;102368.97;2412242;28;46285;-82
2022/07/07 09:14:41;;;;;;;;;0.75;0.75;;;;;23.42;50.60;102366.28;2402098;28;45257;-82
2022/07/07 09:15:57;;;;;;;;;2.00;1.00;;;;;23.43;50.39;102358.16;2409242;28;47510;-82
2022/07/07 09:17:34;;;;;;;;;1.50;1.50;;;;;23.45;50.62;102366.09;2405152;28;45346;-82
2022/07/07 09:18:45;;;;;;;;;2.00;2.00;;;;;23.45;50.27;102358.94;2402644;28;47362;-83
2022/07/07 09:20:04;;;;;;;;;5.50;2.25;;;;;23.46;50.56;102362.44;2411422;28;45317;-82
2022/07/07 09:21:26;;;;;;;;;1.00;1.00;;;;;23.47;50.23;102365.06;2405893;28;45530;-82
2022/07/07 09:22:46;;;;;;;;;4.00;1.00;;;;;23.53;50.77;102362.97;2403810;28;44664;-83
2022/07/07 09:24:01;;;;;;;;;1.25;1.25;;;;;23.55;50.05;102353.00;2412280;28;46311;-83
2022/07/07 09:25:12;;;;;;;;;1.75;1.75;;;;;23.62;50.70;102358.84;2421391;28;45259;-82
2022/07/07 09:26:37;;;;;;;;;1.25;1.25;;;;;23.66;49.91;102361.22;2417251;28;45409;-82
2022/07/07 09:27:55;;;;;;;;;1.00;1.00;;;;;23.71;49.99;102356.44;2402028;28;45271;-83
2022/07/07 09:29:07;;;;;;;;;1.50;0.00;;;;;23.75;49.32;102357.09;2420148;28;46415;-82
2022/07/07 09:30:31;;;;;;;;;1.00;0.00;;;;;23.77;49.16;102363.22;2402055;28;45475;-83
2022/07/07 09:31:54;;;;;;;;;1.00;1.00;;;;;23.82;49.19;102374.53;2410097;28;45768;-82
2022/07/07 09:33:06;;;;;;;;;1.00;1.00;;;;;23.83;49.40;102376.25;2412551;28;44764;-82
2022/07/07 09:34:16;;;;;;;;;1.00;0.00;;;;;23.84;48.97;102366.38;2412218;28;45489;-82
2022/07/07 09:38:31;;;;;;;;;1.00;1.00;;;;;23.89;48.97;102380.38;2393791;28;45236;-82
2022/07/07 09:39:46;;;;;;;;;1.00;1.00;;;;;23.89;48.98;102382.19;2402046;28;45411;-82
2022/07/07 09:41:04;;;;;;;;;0.75;0.75;;;;;23.89;49.04;102368.75;2404407;28;44552;-82
2022/07/07 09:42:23;;;;;;;;;0.75;0.50;;;;;23.91;49.28;102383.81;2407400;28;45486;-82
2022/07/07 09:43:36;;;;;;;;;0.25;0.00;;;;;23.93;48.74;102381.88;2411378;28;44674;-82
2022/07/07 09:44:49;;;;;;;;;1.75;1.75;;;;;23.93;48.67;102378.34;2404517;28;45341;-82
2022/07/07 09:46:08;;;;;;;;;1.75;1.75;;;;;23.92;49.10;102384.69;2409263;28;45279;-82
2022/07/07 09:47:20;;;;;;;;;3.25;1.75;;;;;23.93;49.30;102381.03;2411734;28;45283;-82
2022/07/07 09:48:32;;;;;;;;;2.75;1.25;;;;;23.91;49.07;102383.81;2412518;28;45228;-82
2022/07/07 09:49:43;;;;;;;;;2.75;2.75;;;;;23.92;48.88;102385.56;2408222;28;45458;-83
2022/07/07 09:51:10;;;;;;;;;1.00;1.00;;;;;23.94;48.82;102393.50;2402380;28;44777;-82
2022/07/07 09:52:20;;;;;;;;;1.50;1.00;;;;;23.94;48.93;102390.81;2405621;28;45617;-82
2022/07/07 09:53:30;;;;;;;;;1.00;1.00;;;;;23.93;48.65;102389.94;2410292;28;45220;-82
2022/07/07 09:54:47;;;;;;;;;1.00;1.00;;;;;23.95;48.78;102384.50;2401276;28;46278;-82
2022/07/07 09:56:01;;;;;;;;;0.50;0.50;;;;;23.97;48.61;102395.13;2417659;28;45239;-82
2022/07/07 09:57:11;;;;;;;;;2.00;1.00;;;;;23.96;48.78;102396.06;2418198;28;45767;-82
2022/07/07 09:58:21;;;;;;;;;1.00;1.00;;;;;23.97;48.71;102403.19;2408880;28;45425;-82
2022/07/07 09:59:32;;;;;;;;;1.50;1.00;;;;;23.98;48.56;102407.59;2408298;28;45496;-84
2022/07/07 10:00:42;;;;;;;;;1.25;1.00;;;;;23.96;48.56;102402.31;2403105;28;45473;-83
2022/07/07 10:01:53;;;;;;;;;3.00;1.25;;;;;23.96;48.54;102406.81;2401075;28;48419;-82
2022/07/07 10:03:04;;;;;;;;;1.75;1.00;;;;;23.94;48.49;102417.66;2402399;28;45344;-83
2022/07/07 10:04:19;;;;;;;;;2.75;1.25;;;;;23.91;48.70;102415.16;2402575;28;46290;-82
2022/07/07 10:05:30;;;;;;;;;1.25;1.25;;;;;23.88;48.62;102420.75;2409508;28;44544;-82
2022/07/07 10:06:42;;;;;;;;;1.00;1.00;;;;;23.86;48.65;102419.97;2412254;28;45495;-82
2022/07/07 10:07:53;;;;;;;;;2.00;2.00;;;;;23.83;49.19;102429.94;2412525;28;45326;-82
2022/07/07 10:09:08;;;;;;;;;4.00;2.25;;;;;23.81;48.98;102425.63;2420886;28;47390;-82
2022/07/07 10:10:20;;;;;;;;;1.75;1.00;;;;;23.81;48.84;102422.94;2411501;28;45266;-82
2022/07/07 10:11:38;;;;;;;;;1.00;1.00;;;;;23.80;49.06;102424.78;2408582;28;46258;-82
2022/07/07 10:12:52;;;;;;;;;1.25;1.25;;;;;23.79;49.22;102424.88;2421278;28;45258;-82
2022/07/07 10:14:12;;;;;;;;;1.75;1.75;;;;;23.75;49.15;102421.53;2403218;28;48000;-82
2022/07/07 10:15:23;;;;;;;;;1.00;1.00;;;;;23.75;49.13;102424.22;2397312;28;45539;-82
2022/07/07 10:16:36;;;;;;;;;1.75;1.75;;;;;23.76;49.22;102422.38;2411149;28;46554;-82
2022/07/07 10:17:48;;;;;;;;;4.75;2.00;;;;;23.76;49.05;102433.97;2403584;28;44754;-82
2022/07/07 10:18:58;;;;;;;;;1.00;1.00;;;;;23.75;49.22;102432.25;2401897;28;46555;-82
2022/07/07 10:20:09;;;;;;;;;1.00;1.00;;;;;23.71;49.34;102426.22;2403406;28;45390;-82
2022/07/07 10:21:20;;;;;;;;;3.00;2.00;;;;;23.70;49.24;102429.88;2404074;28;45472;-82
2022/07/07 10:22:31;;;;;;;;;2.25;2.00;;;;;23.68;49.41;102442.50;2404966;28;44623;-83
2022/07/07 10:23:42;;;;;;;;;3.00;2.00;;;;;23.65;49.60;102441.84;2407063;28;46366;-82
2022/07/07 10:25:00;;;;;;;;;2.00;2.00;;;;;23.61;49.40;102435.78;2406671;28;44750;-79
2022/07/07 10:26:11;;;;;;;;;3.00;1.00;;;;;23.58;49.65;102441.38;2410745;28;48040;-84
2022/07/07 10:27:23;;;;;;;;;1.25;1.25;;;;;23.56;49.67;102449.50;2406712;28;44769;-82
2022/07/07 10:28:56;;;;;;;;;2.00;2.00;;;;;23.54;49.82;102456.78;2404067;28;46557;-82
2022/07/07 10:30:07;;;;;;;;;3.50;2.00;;;;;23.49;49.56;102453.53;2402230;28;44654;-82
2022/07/07 10:31:26;;;;;;;;;3.00;3.00;;;;;23.48;50.17;102457.16;2410251;28;46643;-82
2022/07/07 10:32:52;;;;;;;;;2.25;2.00;;;;;23.46;50.07;102459.03;2416895;28;45205;-82
2022/07/07 10:34:04;;;;;;;;;2.25;2.25;;;;;23.44;50.04;102469.88;2396168;28;46491;-83
2022/07/07 10:35:15;;;;;;;;;1.50;1.50;;;;;23.41;49.82;102485.31;2401939;28;45199;-84
2022/07/07 10:36:26;;;;;;;;;1.50;1.50;;;;;23.34;49.95;102474.94;2401657;28;47262;-83
2022/07/07 10:37:45;;;;;;;;;1.75;1.75;;;;;23.30;49.67;102481.44;2394704;28;45384;-84
2022/07/07 10:38:57;;;;;;;;;1.50;1.50;;;;;23.29;50.16;102485.06;2408238;28;45421;-83
2022/07/07 10:40:13;;;;;;;;;1.00;1.00;;;;;23.26;50.16;102486.13;2410216;28;45354;-83
2022/07/07 10:41:25;;;;;;;;;3.00;3.00;;;;;23.25;49.80;102478.16;2410702;28;46025;-82
2022/07/07 10:42:38;;;;;;;;;1.75;1.75;;;;;23.23;49.68;102485.44;2392596;28;44789;-83
2022/07/07 10:44:06;;;;;;;;;4.25;2.00;;;;;23.18;50.00;102492.91;2405492;28;45404;-82
2022/07/07 10:45:17;;;;;;;;;1.25;1.25;;;;;23.13;49.58;102495.88;2402278;28;45141;-83
2022/07/07 10:46:27;;;;;;;;;2.00;2.00;;;;;23.11;49.70;102489.72;2416096;28;46545;-82
2022/07/07 10:47:38;;;;;;;;;2.00;2.00;;;;;23.11;50.07;102487.06;2411491;28;45268;-83
2022/07/07 10:48:52;;;;;;;;;2.00;2.00;;;;;23.12;49.84;102491.44;2405515;28;45300;-83
2022/07/07 10:50:21;;;;;;;;;3.00;2.75;;;;;23.12;49.65;102486.06;2406978;28;46859;-83
2022/07/07 10:51:32;;;;;;;;;2.00;2.00;;;;;23.17;49.71;102492.03;2392596;28;46349;-83
2022/07/07 10:52:42;;;;;;;;;1.00;1.00;;;;;23.20;50.20;102493.66;2403943;28;45226;-83
2022/07/07 10:54:06;;;;;;;;;2.75;2.75;;;;;23.23;49.84;102493.50;2399788;28;47037;-82
2022/07/07 10:55:16;;;;;;;;;2.00;2.00;;;;;23.24;49.96;102487.16;2396960;28;44832;-82
2022/07/07 10:56:27;;;;;;;;;2.00;2.00;;;;;23.27;50.17;102487.84;2401956;28;45382;-82
2022/07/07 10:57:43;;;;;;;;;2.50;1.50;;;;;23.29;49.55;102490.44;2403443;28;45220;-82
2022/07/07 10:58:58;;;;;;;;;2.25;1.75;;;;;23.34;49.92;102482.97;2402306;28;46462;-82
2022/07/07 11:00:16;;;;;;;;;2.50;1.75;;;;;23.37;49.36;102480.13;2406893;28;45328;-82
2022/07/07 11:01:29;;;;;;;;;2.00;2.00;;;;;23.39;49.72;102477.34;2398457;28;46338;-82
2022/07/07 11:02:42;;;;;;;;;1.00;1.00;;;;;23.45;50.11;102490.38;2400637;28;45193;-83
2022/07/07 11:03:53;;;;;;;;;2.25;1.25;;;;;23.47;48.58;102485.78;2394694;28;46217;-83
2022/07/07 11:05:28;;;;;;;;;1.00;1.00;;;;;23.51;49.47;102482.97;2405101;28;45297;-83
2022/07/07 11:07:19;;;;;;;;;1.00;1.00;;;;;23.57;48.93;102483.44;2398592;28;45285;-83